Waterville, WA

7:40 AM PDT on October 22, 2014 (GMT -0700)
RAWS DOUGLAS WA US | Change Station
CLOSE
Current Station
Personal Weather Station
Location: Waterville, WA
Elevation: 2529 ft
Nearby Weather Stations

Elev 2529 ft 47.62 °N, 119.90 °W | Updated 52 minutes ago

Overcast
Overcast
42 °F
Feels Like 37 °F
N
8
Wind Variable Wind from SSE
Gusts 15.0 mph

Today
High -- | Low -- °F
--% Chance of Precip.
Yesterday
High -- | Low -- °F
Precip. -- in
7:28 AM 5:58 PM
Waning Crescent, 2% visible
Pressure 29.81 in
Visibility 10.0 miles
Clouds Overcast 4300 ft
Windchill 37 °F
Dew Point 39 °F
Humidity 90%
Rainfall 0.03 in
Snow Depth Not available.
UV 0 out of 12
Pollen .40 out of 12
Air Quality Not available.
Flu Activity Sporadic
METAR KEAT 221355Z AUTO 14009KT 10SM OVC043 11/05 A2980 RMK AO2 SLP092 T01060050

More Conditions Fewer Conditions

Pressure 29.81 in
Visibility 10.0 miles
Clouds Overcast 4300 ft
Windchill 37 °F
Dew Point 39 °F
Humidity 90%
Rainfall 0.03 in
Snow Depth Not available.
UV 0 out of 12
Pollen .40 out of 12
Air Quality Not available.
Flu Activity Sporadic
METAR KEAT 221355Z AUTO 14009KT 10SM OVC043 11/05 A2980 RMK AO2 SLP092 T01060050

More Conditions Fewer Conditions

10-Day Weather Forecast

Almanac

Astronomy

Oct. 22, 2014 Rise Set
Actual Time 7:28 AM PDT 5:58 PM PDT
Civil Twilight 6:57 AM PDT 6:29 PM PDT
Nautical Twilight 6:21 AM PDT 7:05 PM PDT
Astronomical Twilight 5:45 AM PDT 7:41 PM PDT
Moon 6:10 AM PDT 5:31 PM PDT
Length of Visible Light 11h 32m
Length of Day
10h 29m
Tomorrow will be 3m 15s shorter.
Waning Crescent, 2% of the Moon is Illuminated
Today
Waning Crescent
Oct 23
New
Oct 30
First Quarter
Nov 6
Full
Nov 14
Last Quarter

Today's Extremes

State Highs State Lows

Community

WunderPhotos

Upload Photos

1,763,935 photos uploaded!

WunderBlogs® & News

Nearby

Snow Depth

Station Depth Elevation
Trough 0 in 5300 ft
Pope Ridge 1 in 3540 ft
Grouse Camp 0 in 5380 ft
Blewett Pass 0 in 4270 ft
Stevens Pass 0 in 4070 ft

Earthquake Activity

City Distance Mag. Time & Date
No recent earthquake activity has been reported nearby.
Minimum magnitude displayed is 2.5.

Coastal Water Temperatures

Place Temperature
No Stations Reporting

Nearby Weather Stations